Time;durP1;ratioP1;P1;durP2;ratioP2;P2;SDS_P1;SDS_P2;PMS_P1;PMS_P2;Temp;Humidity;BMP_temperature;BMP_pressure;BME280_temperature;BME280_humidity;BME280_pressure;Samples;Min_cycle;Max_cycle;Signal;HPM_P1;HPM_P2
2024/01/04 00:03:59;;;;;;;0.30;0.10;;;;;;;8.24;87.24;150744.53;13034339;22;20026;-82
2024/01/04 00:09:01;;;;;;;0.28;0.17;;;;;;;8.22;87.09;150738.06;13035398;22;20023;-83
2024/01/04 00:14:05;;;;;;;0.45;0.10;;;;;;;8.25;86.12;150747.09;13066588;22;20078;-83
2024/01/04 00:19:07;;;;;;;0.00;0.00;;;;;;;8.22;86.08;150739.34;13078094;22;20015;-83
2024/01/04 00:24:09;;;;;;;0.47;0.10;;;;;;;8.14;86.58;150717.44;13063476;22;20057;-83
2024/01/04 00:29:11;;;;;;;0.80;0.00;;;;;;;8.18;86.46;150729.03;13037516;22;20020;-82
2024/01/04 00:34:12;;;;;;;1.25;0.47;;;;;;;8.30;85.48;150759.97;13039422;22;20047;-82
2024/01/04 00:39:14;;;;;;;0.38;0.00;;;;;;;8.33;85.21;150767.72;13064164;22;20391;-83
2024/01/04 00:44:17;;;;;;;0.10;0.10;;;;;;;8.26;86.00;150749.66;13067217;22;20019;-81
2024/01/04 00:49:19;;;;;;;0.00;0.00;;;;;;;8.21;86.67;150736.78;13035471;22;20023;-82
2024/01/04 00:54:21;;;;;;;0.00;0.00;;;;;;;8.31;86.41;150761.25;13037534;22;20015;-82
2024/01/04 00:59:22;;;;;;;0.17;0.00;;;;;;;8.40;85.41;150784.50;13037155;22;20034;-82
2024/01/04 01:04:24;;;;;;;0.70;0.10;;;;;;;8.44;84.87;150794.81;13064289;22;20015;-82
2024/01/04 01:09:26;;;;;;;0.80;0.10;;;;;;;8.41;85.55;150787.13;13059528;22;20023;-85
2024/01/04 01:14:27;;;;;;;1.13;0.10;;;;;;;8.44;84.89;150793.53;13072703;22;20015;-84
2024/01/04 01:19:29;;;;;;;0.15;0.08;;;;;;;8.38;85.92;150779.38;13067018;22;20023;-82
2024/01/04 01:24:31;;;;;;;0.38;0.00;;;;;;;8.41;86.13;150787.13;13067537;22;20019;-80
2024/01/04 01:29:33;;;;;;;0.10;0.10;;;;;;;8.41;86.14;150785.78;13067876;22;20012;-83
2024/01/04 01:34:35;;;;;;;0.57;0.10;;;;;;;8.44;86.05;150794.81;13067275;22;20037;-81
2024/01/04 01:39:37;;;;;;;1.65;0.10;;;;;;;8.45;86.13;150797.38;13067346;22;20038;-82
2024/01/04 01:44:38;;;;;;;0.10;0.10;;;;;;;8.51;85.09;150811.59;13067530;22;20015;-80
2024/01/04 01:49:40;;;;;;;0.10;0.00;;;;;;;8.43;85.07;150790.97;13039058;22;20019;-82
2024/01/04 01:54:42;;;;;;;0.00;0.00;;;;;;;8.44;85.04;150794.81;13069282;22;20011;-81
2024/01/04 01:59:44;;;;;;;0.13;0.10;;;;;;;8.38;85.07;150778.09;13065746;22;20042;-82
2024/01/04 02:04:47;;;;;;;0.35;0.08;;;;;;;8.48;83.93;150805.13;13053120;22;20075;-83
2024/01/04 02:09:49;;;;;;;0.10;0.00;;;;;;;8.46;83.64;150800.00;13086674;22;20023;-82
2024/01/04 02:14:54;;;;;;;0.20;0.00;;;;;;;8.48;83.57;150805.13;13085923;22;20019;-81
2024/01/04 02:19:57;;;;;;;0.15;0.10;;;;;;;8.46;83.70;150800.00;13075358;22;20020;-83
2024/01/04 02:24:59;;;;;;;0.60;0.10;;;;;;;8.46;83.10;150800.00;13052080;22;20026;-82
2024/01/04 02:30:01;;;;;;;0.10;0.00;;;;;;;8.52;82.39;150815.47;13071620;22;20019;-83
2024/01/04 02:35:03;;;;;;;0.10;0.00;;;;;;;8.59;81.81;150832.25;13059319;22;20016;-80
2024/01/04 02:40:06;;;;;;;0.05;0.00;;;;;;;8.60;81.58;150834.81;13086778;22;20015;-81
2024/01/04 02:45:08;;;;;;;0.00;0.00;;;;;;;8.57;81.06;150828.34;13078018;22;20033;-81
2024/01/04 02:50:11;;;;;;;1.20;0.10;;;;;;;8.44;81.19;150794.81;13046234;22;20030;-82
2024/01/04 02:55:13;;;;;;;0.10;0.10;;;;;;;8.31;82.26;150762.56;13048626;22;20011;-81
2024/01/04 03:00:17;;;;;;;0.30;0.00;;;;;;;8.43;81.13;150792.25;13045576;22;20019;-82
2024/01/04 03:05:19;;;;;;;0.50;0.30;;;;;;;8.34;81.90;150770.28;13073202;22;20019;-81
2024/01/04 03:10:20;;;;;;;0.20;0.10;;;;;;;8.27;82.49;150752.22;13070708;22;20012;-83
2024/01/04 03:15:22;;;;;;;0.10;0.00;;;;;;;8.25;83.49;150745.81;13071980;22;20015;-81
2024/01/04 03:20:24;;;;;;;1.05;0.10;;;;;;;8.17;84.40;150726.47;13070029;22;20019;-81
2024/01/04 03:25:26;;;;;;;0.10;0.10;;;;;;;8.10;85.26;150708.41;13070637;22;20018;-82
2024/01/04 03:30:27;;;;;;;0.22;0.10;;;;;;;8.09;85.37;150707.13;13071872;22;20039;-80
2024/01/04 03:35:29;;;;;;;0.00;0.00;;;;;;;8.32;83.83;150763.84;13073759;22;20015;-81
2024/01/04 03:40:31;;;;;;;0.10;0.05;;;;;;;8.39;82.33;150780.66;13043647;22;20022;-81
2024/01/04 03:45:33;;;;;;;0.40;0.10;;;;;;;8.42;82.01;150789.69;13042823;22;20072;-81
2024/01/04 03:50:35;;;;;;;1.65;0.00;;;;;;;8.34;81.55;150769.00;13072082;22;20016;-82
2024/01/04 03:55:37;;;;;;;0.00;0.00;;;;;;;8.41;80.66;150787.13;13073800;22;20033;-81
2024/01/04 04:00:38;;;;;;;0.10;0.00;;;;;;;8.44;80.53;150793.53;13071037;22;20023;-82
2024/01/04 04:05:44;;;;;;;0.00;0.00;;;;;;;8.35;80.71;150771.59;13072379;22;20102;-82
2024/01/04 04:10:46;;;;;;;0.22;0.00;;;;;;;8.50;79.91;150810.31;13074629;22;20063;-83
2024/01/04 04:15:48;;;;;;;0.10;0.00;;;;;;;8.44;81.13;150794.81;13078031;22;20032;-81
2024/01/04 04:20:49;;;;;;;0.00;0.00;;;;;;;8.49;81.73;150807.72;13052059;22;20019;-82
2024/01/04 04:25:51;;;;;;;0.10;0.00;;;;;;;8.34;84.20;150770.28;13078434;22;20023;-81
2024/01/04 04:30:53;;;;;;;0.10;0.00;;;;;;;8.07;89.53;150700.72;13080529;22;20015;-82
2024/01/04 04:35:55;;;;;;;0.10;0.10;;;;;;;7.82;96.03;150638.84;13059858;22;20042;-81
2024/01/04 04:41:04;;;;;;;0.25;0.05;;;;;;;7.65;99.25;150593.75;13092394;22;20023;-82
2024/01/04 04:46:09;;;;;;;0.20;0.00;;;;;;;7.61;100.00;150584.72;13099858;22;20011;-81
2024/01/04 04:51:12;;;;;;;0.30;0.00;;;;;;;7.46;100.00;150546.09;13100108;22;20026;-82
2024/01/04 04:56:14;;;;;;;0.05;0.00;;;;;;;7.49;100.00;150555.13;13104031;22;20072;-82
2024/01/04 05:01:16;;;;;;;0.13;0.05;;;;;;;7.51;100.00;150560.25;13105196;22;20018;-81
2024/01/04 05:06:17;;;;;;;0.10;0.10;;;;;;;7.65;100.00;150593.75;13105574;22;20003;-82
2024/01/04 05:11:19;;;;;;;0.20;0.00;;;;;;;7.53;100.00;150565.44;13102176;22;20034;-81
2024/01/04 05:16:21;;;;;;;0.00;0.00;;;;;;;7.68;100.00;150602.78;13102476;22;20057;-83
2024/01/04 05:21:23;;;;;;;0.00;0.00;;;;;;;7.74;100.00;150616.94;13096617;22;20014;-82
2024/01/04 05:26:24;;;;;;;0.28;0.03;;;;;;;7.70;100.00;150606.63;13070618;22;20472;-83
2024/01/04 05:31:26;;;;;;;0.45;0.10;;;;;;;7.44;100.00;150542.25;13072191;22;20019;-79
2024/01/04 05:36:30;;;;;;;0.15;0.10;;;;;;;7.42;100.00;150537.06;13101120;22;20011;-81
2024/01/04 05:41:31;;;;;;;0.00;0.00;;;;;;;7.34;100.00;150517.75;13097569;22;20437;-79
2024/01/04 05:46:33;;;;;;;0.00;0.00;;;;;;;7.33;100.00;150515.16;13101045;22;20019;-79
2024/01/04 05:51:35;;;;;;;0.38;0.10;;;;;;;7.39;100.00;150528.03;13103031;22;20015;-80
2024/01/04 05:56:44;;;;;;;0.20;0.10;;;;;;;7.30;100.00;150506.16;13089699;22;20015;-79
2024/01/04 06:01:47;;;;;;;0.98;0.10;;;;;;;7.24;100.00;150490.72;13103062;22;20043;-79
2024/01/04 06:06:49;;;;;;;0.10;0.10;;;;;;;7.26;100.00;150497.19;13100375;22;20010;-79
2024/01/04 06:11:50;;;;;;;0.40;0.08;;;;;;;7.22;100.00;150486.88;13099684;22;20011;-80
2024/01/04 06:16:53;;;;;;;0.00;0.00;;;;;;;7.17;100.00;150474.00;13102351;22;20014;-81
2024/01/04 06:21:55;;;;;;;0.00;0.00;;;;;;;7.17;100.00;150472.66;13104499;22;19999;-79
2024/01/04 06:26:56;;;;;;;0.13;0.08;;;;;;;7.24;100.00;150490.72;13104746;22;20019;-79
2024/01/04 06:31:58;;;;;;;0.20;0.10;;;;;;;7.21;100.00;150484.25;13102089;22;20015;-78
2024/01/04 06:37:00;;;;;;;0.30;0.10;;;;;;;7.15;100.00;150468.81;13100187;22;20022;-80
2024/01/04 06:42:04;;;;;;;0.10;0.10;;;;;;;7.22;100.00;150486.88;13074143;22;19991;-81
2024/01/04 06:47:06;;;;;;;0.00;0.00;;;;;;;7.15;100.00;150467.53;13070254;22;20067;-81
2024/01/04 06:52:08;;;;;;;0.30;0.10;;;;;;;7.14;100.00;150464.97;13096275;22;20012;-80
2024/01/04 06:57:10;;;;;;;0.00;0.00;;;;;;;7.27;100.00;150499.75;13076198;22;20023;-82
2024/01/04 07:02:13;;;;;;;0.00;0.00;;;;;;;7.26;100.00;150497.19;13055224;22;20066;-80
2024/01/04 07:07:14;;;;;;;0.00;0.00;;;;;;;7.18;100.00;150476.56;13108247;22;20003;-79
2024/01/04 07:12:16;;;;;;;0.17;0.10;;;;;;;7.19;100.00;150477.84;13107134;22;20019;-80
2024/01/04 07:17:18;;;;;;;0.10;0.10;;;;;;;7.16;100.00;150470.09;13080548;22;20006;-79
2024/01/04 07:22:20;;;;;;;0.30;0.10;;;;;;;7.18;100.00;150476.56;13103418;22;20026;-80
2024/01/04 07:27:22;;;;;;;0.10;0.10;;;;;;;7.16;100.00;150470.09;13108342;22;20078;-79
2024/01/04 07:32:24;;;;;;;0.10;0.10;;;;;;;7.13;100.00;150463.69;13081858;22;20045;-79
2024/01/04 07:37:26;;;;;;;0.10;0.10;;;;;;;7.02;100.00;150435.34;13082918;22;20022;-79
2024/01/04 07:42:29;;;;;;;0.00;0.00;;;;;;;7.09;100.00;150453.38;13106442;22;20337;-78
2024/01/04 07:47:36;;;;;;;0.65;0.13;;;;;;;7.18;100.00;150476.56;13080165;22;20026;-79
2024/01/04 07:52:39;;;;;;;0.20;0.20;;;;;;;7.23;100.00;150489.44;13077958;22;20059;-80
2024/01/04 07:57:41;;;;;;;0.17;0.10;;;;;;;7.30;100.00;150507.47;13103345;22;20019;-80
2024/01/04 08:02:43;;;;;;;0.17;0.17;;;;;;;7.41;100.00;150533.22;13066545;22;20029;-81
2024/01/04 08:07:44;;;;;;;0.10;0.10;;;;;;;7.46;100.00;150546.09;13071648;22;20059;-81
2024/01/04 08:12:46;;;;;;;0.20;0.10;;;;;;;7.41;100.00;150533.22;13075205;22;20019;-82
2024/01/04 08:17:48;;;;;;;0.32;0.20;;;;;;;7.41;100.00;150534.50;13081132;22;20015;-81
2024/01/04 08:22:51;;;;;;;0.22;0.10;;;;;;;7.55;100.00;150570.56;13081731;22;20019;-82
2024/01/04 08:27:54;;;;;;;0.20;0.00;;;;;;;7.64;100.00;150591.19;13092371;22;20015;-82
2024/01/04 08:32:56;;;;;;;0.10;0.00;;;;;;;7.74;100.00;150616.94;13085164;22;20019;-81
2024/01/04 08:37:58;;;;;;;0.00;0.00;;;;;;;7.80;97.48;150633.72;13060789;22;20026;-80
2024/01/04 08:43:00;;;;;;;0.25;0.10;;;;;;;7.86;96.96;150647.88;13111360;22;20016;-82
2024/01/04 08:48:01;;;;;;;0.10;0.08;;;;;;;8.00;93.50;150682.66;13086030;22;20000;-80
2024/01/04 08:53:03;;;;;;;0.00;0.00;;;;;;;7.82;95.79;150637.56;13112569;22;20036;-79
2024/01/04 08:58:06;;;;;;;0.10;0.10;;;;;;;7.74;95.69;150616.94;13112589;22;20033;-79
2024/01/04 09:03:08;;;;;;;0.17;0.10;;;;;;;7.87;93.67;150649.16;13109873;22;20019;-79
2024/01/04 09:08:10;;;;;;;0.00;0.00;;;;;;;7.81;92.84;150635.00;13074073;22;20019;-80
2024/01/04 09:13:12;;;;;;;0.20;0.10;;;;;;;7.80;91.94;150633.72;13096198;22;20011;-82
2024/01/04 09:18:13;;;;;;;0.00;0.00;;;;;;;7.81;91.11;150635.00;13099146;22;20026;-82
2024/01/04 09:23:16;;;;;;;0.10;0.10;;;;;;;7.82;89.39;150638.84;13099548;22;20023;-83
2024/01/04 09:28:18;;;;;;;0.20;0.10;;;;;;;7.91;88.66;150659.47;13105511;22;20015;-81
2024/01/04 09:33:24;;;;;;;0.10;0.00;;;;;;;7.97;86.87;150674.91;13106245;22;20034;-81
2024/01/04 09:38:27;;;;;;;0.10;0.10;;;;;;;8.14;84.80;150717.44;13060918;22;20023;-79
2024/01/04 09:43:31;;;;;;;0.17;0.10;;;;;;;8.18;83.39;150729.03;13069322;22;20019;-82
2024/01/04 09:48:38;;;;;;;0.17;0.17;;;;;;;8.27;82.34;150750.94;13069101;22;20030;-81
2024/01/04 09:53:41;;;;;;;0.75;0.47;;;;;;;8.31;81.77;150762.56;13041668;22;20485;-81
2024/01/04 09:58:43;;;;;;;0.17;0.10;;;;;;;8.21;79.91;150735.50;13048010;22;20057;-80
2024/01/04 10:03:49;;;;;;;0.95;0.20;;;;;;;8.24;80.64;150743.25;13082602;22;20069;-80
2024/01/04 10:08:57;;;;;;;0.30;0.10;;;;;;;8.41;80.55;150787.13;13082614;22;20015;-80
2024/01/04 10:13:59;;;;;;;0.30;0.10;;;;;;;8.53;79.53;150818.03;13086379;22;20015;-81
2024/01/04 10:19:01;;;;;;;0.10;0.10;;;;;;;8.45;80.95;150796.09;13066688;22;20019;-80
2024/01/04 10:24:04;;;;;;;0.40;0.35;;;;;;;8.68;81.25;150854.16;13068021;22;20022;-81
2024/01/04 10:29:06;;;;;;;0.30;0.10;;;;;;;8.62;82.90;150839.94;13044456;22;20453;-80
2024/01/04 10:34:09;;;;;;;0.20;0.10;;;;;;;8.54;83.42;150820.66;13038144;22;20018;-83
2024/01/04 10:39:11;;;;;;;0.05;0.05;;;;;;;8.26;86.24;150749.66;13065019;22;20041;-81
2024/01/04 10:44:13;;;;;;;1.02;0.20;;;;;;;8.15;91.17;150720.06;13065486;22;20383;-81
2024/01/04 10:49:16;;;;;;;0.10;0.10;;;;;;;7.97;94.09;150674.91;13065647;22;20457;-80
2024/01/04 10:54:18;;;;;;;1.00;0.10;;;;;;;8.04;96.37;150692.97;13037933;22;20016;-81
2024/01/04 10:59:22;;;;;;;0.30;0.20;;;;;;;8.04;96.58;150692.97;13065029;22;20514;-80
2024/01/04 11:04:25;;;;;;;0.20;0.20;;;;;;;8.15;94.45;150720.06;13039286;22;20121;-80
2024/01/04 11:09:31;;;;;;;0.10;0.10;;;;;;;7.98;99.40;150678.81;13066064;22;20034;-80
2024/01/04 11:14:33;;;;;;;0.10;0.10;;;;;;;7.74;100.00;150616.94;13067991;22;20392;-80
2024/01/04 11:19:59;;;;;;;0.30;0.30;;;;;;;7.44;100.00;150542.25;13037983;22;20023;-80
2024/01/04 11:25:42;;;;;;;0.27;0.23;;;;;;;7.02;100.00;150436.63;13065767;22;20019;-80
2024/01/04 11:30:50;;;;;;;0.73;0.30;;;;;;;7.15;100.00;150468.81;13071135;22;20043;-80
2024/01/04 11:35:52;;;;;;;0.40;0.20;;;;;;;7.32;100.00;150511.31;13065196;22;20030;-80
2024/01/04 11:40:53;;;;;;;0.15;0.10;;;;;;;7.29;100.00;150504.88;13064125;22;20073;-83
2024/01/04 11:45:55;;;;;;;0.25;0.20;;;;;;;7.54;100.00;150566.72;13067185;22;20038;-81
2024/01/04 11:50:59;;;;;;;0.35;0.10;;;;;;;7.49;100.00;150553.84;13092548;22;20015;-79
2024/01/04 11:56:04;;;;;;;0.20;0.10;;;;;;;7.45;100.00;150543.53;13080564;22;20012;-81
2024/01/04 12:01:06;;;;;;;0.20;0.10;;;;;;;7.54;100.00;150568.00;13064451;22;20077;-80
2024/01/04 12:06:09;;;;;;;0.10;0.10;;;;;;;7.56;97.13;150573.13;13036706;22;20015;-81
2024/01/04 12:11:10;;;;;;;0.32;0.28;;;;;;;7.61;96.65;150583.44;13061817;22;20024;-83
2024/01/04 12:16:13;;;;;;;1.63;0.30;;;;;;;7.47;100.00;150549.94;13064689;22;20016;-81
2024/01/04 12:21:15;;;;;;;0.32;0.30;;;;;;;7.15;100.00;150468.81;13062441;22;20041;-81
2024/01/04 12:26:26;;;;;;;0.65;0.30;;;;;;;7.11;100.00;150457.22;13065896;22;20011;-81
2024/01/04 12:31:29;;;;;;;0.20;0.20;;;;;;;7.07;100.00;150448.22;13068634;22;20464;-81
2024/01/04 12:36:32;;;;;;;0.30;0.28;;;;;;;7.12;100.00;150461.06;13064265;22;20306;-82
2024/01/04 12:41:34;;;;;;;0.60;0.30;;;;;;;7.00;100.00;150430.22;13035091;22;20072;-82
2024/01/04 12:46:36;;;;;;;0.30;0.20;;;;;;;6.87;100.00;150396.75;13039952;22;20357;-82
2024/01/04 12:51:40;;;;;;;0.77;0.40;;;;;;;6.90;100.00;150404.44;13092393;22;20019;-82
2024/01/04 12:56:42;;;;;;;0.25;0.25;;;;;;;6.99;100.00;150428.88;13065785;22;20086;-82
2024/01/04 13:01:44;;;;;;;0.20;0.20;;;;;;;6.81;100.00;150382.53;13097653;22;20015;-81
2024/01/04 13:06:46;;;;;;;0.40;0.30;;;;;;;6.90;100.00;150404.44;13073315;22;20015;-82
2024/01/04 13:11:48;;;;;;;0.43;0.25;;;;;;;6.87;100.00;150396.75;13052001;22;20083;-81
2024/01/04 13:16:50;;;;;;;0.20;0.20;;;;;;;6.54;100.00;150314.31;13093399;22;20015;-83
2024/01/04 13:21:55;;;;;;;0.40;0.40;;;;;;;6.25;100.00;150242.28;13085489;22;20019;-81
2024/01/04 13:26:57;;;;;;;1.38;0.60;;;;;;;6.15;100.00;150216.50;13079671;22;20037;-83
2024/01/04 13:31:59;;;;;;;0.80;0.80;;;;;;;6.24;100.00;150238.38;13083622;22;20068;-81
2024/01/04 13:37:01;;;;;;;1.13;0.80;;;;;;;6.04;100.00;150189.50;13072600;22;20011;-81
2024/01/04 13:42:03;;;;;;;0.93;0.88;;;;;;;5.96;100.00;150168.91;13069638;22;20081;-82
2024/01/04 13:47:04;;;;;;;1.02;0.80;;;;;;;6.02;100.00;150184.38;13069060;22;20072;-80
2024/01/04 13:52:09;;;;;;;1.73;0.60;;;;;;;5.83;100.00;150136.69;13071754;22;20019;-82
2024/01/04 13:57:11;;;;;;;1.20;0.45;;;;;;;5.81;100.00;150130.28;13070150;22;20096;-82
2024/01/04 14:02:15;;;;;;;1.40;0.60;;;;;;;5.79;100.00;150126.41;13074280;22;20019;-82
2024/01/04 14:07:17;;;;;;;1.40;0.77;;;;;;;5.69;100.00;150099.41;13046147;22;20019;-81
2024/01/04 14:12:18;;;;;;;0.85;0.60;;;;;;;5.75;100.00;150114.81;13079391;22;20068;-82
2024/01/04 14:17:20;;;;;;;0.77;0.45;;;;;;;5.62;100.00;150081.38;13044190;22;20398;-81
2024/01/04 14:22:22;;;;;;;0.82;0.63;;;;;;;5.60;100.00;150077.53;13071675;22;20480;-82
2024/01/04 14:27:23;;;;;;;0.50;0.40;;;;;;;5.56;100.00;150068.53;13051728;22;20039;-81
2024/01/04 14:32:31;;;;;;;1.42;0.60;;;;;;;5.46;100.00;150041.53;13070607;22;20334;-84
2024/01/04 14:37:39;;;;;;;1.05;0.70;;;;;;;5.32;100.00;150006.81;13076205;22;20023;-82
2024/01/04 14:42:41;;;;;;;0.57;0.57;;;;;;;5.29;100.00;149999.09;13078493;22;20015;-81
2024/01/04 14:47:44;;;;;;;0.77;0.60;;;;;;;5.17;100.00;149968.22;13069895;22;20019;-82
2024/01/04 14:52:46;;;;;;;0.32;0.30;;;;;;;5.14;100.00;149961.81;13066592;22;20412;-81
2024/01/04 14:57:48;;;;;;;1.42;0.77;;;;;;;4.99;100.00;149924.50;13068212;22;20064;-80
2024/01/04 15:02:50;;;;;;;1.00;0.60;;;;;;;4.84;100.00;149885.97;13041766;22;20015;-81
2024/01/04 15:07:52;;;;;;;0.63;0.57;;;;;;;4.71;97.75;149853.81;13069089;22;20021;-81
2024/01/04 15:12:55;;;;;;;1.00;0.68;;;;;;;4.66;98.23;149840.97;13045771;22;20449;-81
2024/01/04 15:17:57;;;;;;;0.77;0.55;;;;;;;4.63;99.04;149833.25;13064728;22;20019;-80
2024/01/04 15:22:59;;;;;;;1.45;1.35;;;;;;;4.63;98.03;149833.25;13065120;22;20018;-82
2024/01/04 15:28:04;;;;;;;1.13;0.70;;;;;;;4.51;98.36;149802.41;13067904;22;20019;-81
2024/01/04 15:33:05;;;;;;;0.70;0.70;;;;;;;4.64;95.37;149835.81;13065530;22;20018;-81
2024/01/04 15:38:09;;;;;;;1.00;0.73;;;;;;;4.45;96.40;149788.28;13036753;22;20020;-81
2024/01/04 15:43:11;;;;;;;1.35;1.10;;;;;;;4.50;97.05;149799.84;13035808;22;20034;-81
2024/01/04 15:48:13;;;;;;;1.17;0.82;;;;;;;4.42;97.27;149779.28;13036302;22;20078;-81
2024/01/04 15:53:18;;;;;;;0.70;0.70;;;;;;;4.41;97.85;149776.72;13064399;22;20011;-79
2024/01/04 15:58:20;;;;;;;2.08;1.20;;;;;;;4.23;98.49;149731.75;13059369;22;20003;-81
2024/01/04 16:03:22;;;;;;;1.98;1.15;;;;;;;4.33;98.34;149756.16;13074145;22;20015;-80
2024/01/04 16:08:24;;;;;;;2.10;1.42;;;;;;;4.41;98.63;149778.00;13039062;22;20015;-80
2024/01/04 16:13:26;;;;;;;1.55;1.20;;;;;;;4.39;97.70;149772.88;13039557;22;20039;-80
2024/01/04 16:18:28;;;;;;;1.13;1.02;;;;;;;4.40;95.12;149774.16;13066514;22;20069;-81
2024/01/04 16:23:30;;;;;;;1.33;1.10;;;;;;;4.00;96.28;149675.22;13061970;22;20068;-80
2024/01/04 16:28:32;;;;;;;1.40;1.30;;;;;;;4.03;96.56;149682.97;13064334;22;20019;-81
2024/01/04 16:33:34;;;;;;;1.48;1.30;;;;;;;4.07;95.23;149691.91;13071243;22;20011;-80
2024/01/04 16:38:36;;;;;;;1.40;1.25;;;;;;;3.89;95.90;149645.69;13092554;22;20023;-81
2024/01/04 16:43:39;;;;;;;1.75;1.40;;;;;;;3.86;95.21;149639.28;13061748;22;20318;-82
2024/01/04 16:48:41;;;;;;;1.40;1.23;;;;;;;3.93;95.39;149655.97;13063193;22;20015;-82
2024/01/04 16:53:43;;;;;;;1.75;1.35;;;;;;;3.99;95.18;149672.69;13065987;22;20016;-80
2024/01/04 16:58:46;;;;;;;3.95;2.05;;;;;;;3.83;94.24;149630.28;13066691;22;20045;-81
2024/01/04 17:03:48;;;;;;;1.67;1.58;;;;;;;3.89;93.52;149645.69;13066069;22;20011;-81
2024/01/04 17:08:50;;;;;;;3.25;2.22;;;;;;;3.68;94.11;149594.34;13071880;22;20019;-82
2024/01/04 17:13:52;;;;;;;1.80;1.70;;;;;;;3.82;93.38;149629.00;13071965;22;20039;-82
2024/01/04 17:18:53;;;;;;;2.50;2.13;;;;;;;3.72;94.63;149603.34;13080826;22;20018;-80
2024/01/04 17:23:56;;;;;;;2.75;2.10;;;;;;;3.85;93.75;149635.41;13110202;22;20003;-80
2024/01/04 17:28:58;;;;;;;2.40;1.73;;;;;;;3.64;94.50;149582.78;13104097;22;20018;-81
2024/01/04 17:34:00;;;;;;;2.22;1.42;;;;;;;3.68;94.02;149593.06;13101355;22;20064;-82
2024/01/04 17:39:04;;;;;;;2.53;1.55;;;;;;;3.72;93.73;149603.34;13075778;22;20078;-80
2024/01/04 17:44:07;;;;;;;2.25;1.77;;;;;;;3.65;93.91;149586.63;13108212;22;20003;-81
2024/01/04 17:49:09;;;;;;;2.22;1.38;;;;;;;3.52;94.65;149553.22;13109749;22;20022;-80
2024/01/04 17:54:12;;;;;;;2.58;1.60;;;;;;;3.68;93.86;149593.06;13112436;22;20000;-81
2024/01/04 17:59:14;;;;;;;1.45;1.23;;;;;;;3.60;94.25;149572.50;13107880;22;20011;-80
2024/01/04 18:04:16;;;;;;;1.60;1.42;;;;;;;3.67;93.43;149591.72;13104584;22;20011;-78
2024/01/04 18:09:18;;;;;;;2.50;2.03;;;;;;;3.66;93.65;149587.91;13102334;22;20019;-80
2024/01/04 18:14:20;;;;;;;1.20;1.10;;;;;;;3.69;91.63;149595.63;13110109;22;19999;-79
2024/01/04 18:19:22;;;;;;;2.15;1.45;;;;;;;3.52;94.88;149554.50;13053400;22;20068;-81
2024/01/04 18:24:25;;;;;;;1.33;1.20;;;;;;;3.62;93.08;149577.63;13107452;22;20015;-80
2024/01/04 18:29:27;;;;;;;1.17;1.08;;;;;;;3.52;93.50;149554.50;13106595;22;19999;-79
2024/01/04 18:34:30;;;;;;;1.40;1.20;;;;;;;3.50;93.79;149548.13;13107255;22;20003;-80
2024/01/04 18:39:32;;;;;;;3.65;2.53;;;;;;;3.53;93.80;149557.06;13104997;22;20041;-80
2024/01/04 18:44:35;;;;;;;3.03;1.65;;;;;;;3.57;94.61;149564.78;13105392;22;20015;-79
2024/01/04 18:49:36;;;;;;;2.72;1.88;;;;;;;3.68;91.81;149594.34;13106147;22;20003;-79
2024/01/04 18:54:39;;;;;;;3.97;2.10;;;;;;;3.60;91.71;149572.50;13074374;22;20026;-80
2024/01/04 18:59:42;;;;;;;1.75;1.50;;;;;;;3.58;92.28;149567.34;13108826;22;20003;-82
2024/01/04 19:04:46;;;;;;;0.95;0.85;;;;;;;3.46;91.03;149539.13;13084490;22;20019;-82
2024/01/04 19:09:48;;;;;;;0.80;0.77;;;;;;;3.36;90.79;149512.13;13084623;22;20022;-81
2024/01/04 19:14:50;;;;;;;1.10;0.90;;;;;;;3.26;92.18;149489.03;13101060;22;20022;-82
2024/01/04 19:19:51;;;;;;;1.10;0.77;;;;;;;3.26;92.77;149487.75;13089416;22;20022;-81
2024/01/04 19:24:53;;;;;;;1.23;0.88;;;;;;;3.24;91.39;149483.91;13082255;22;20015;-81
2024/01/04 19:29:55;;;;;;;1.85;0.70;;;;;;;3.28;91.56;149494.19;13051361;22;20019;-81
2024/01/04 19:34:57;;;;;;;1.30;0.88;;;;;;;3.19;91.19;149469.81;13083958;22;20011;-81
2024/01/04 19:39:59;;;;;;;1.33;0.90;;;;;;;3.10;93.48;149446.66;13054681;22;20019;-81
2024/01/04 19:45:01;;;;;;;0.80;0.80;;;;;;;3.12;92.41;149453.09;13065194;22;20011;-83
2024/01/04 19:50:03;;;;;;;1.17;0.82;;;;;;;3.11;92.18;149449.25;13079946;22;20020;-81
2024/01/04 19:55:12;;;;;;;1.10;0.70;;;;;;;3.02;90.95;149428.72;13050614;22;20095;-82
2024/01/04 20:00:15;;;;;;;1.25;0.70;;;;;;;2.86;92.04;149387.63;13078983;22;20030;-81
2024/01/04 20:05:17;;;;;;;0.75;0.50;;;;;;;2.83;94.07;149378.66;13079857;22;20016;-81
2024/01/04 20:10:18;;;;;;;0.88;0.80;;;;;;;2.94;92.15;149408.19;13053796;22;20094;-81
2024/01/04 20:15:20;;;;;;;0.70;0.63;;;;;;;2.90;90.29;149396.63;13080055;22;20023;-81
2024/01/04 20:20:22;;;;;;;1.58;0.63;;;;;;;3.09;87.89;149444.09;13078862;22;20067;-81
2024/01/04 20:25:23;;;;;;;0.63;0.63;;;;;;;3.09;87.62;149445.38;13050688;22;20020;-82
2024/01/04 20:30:25;;;;;;;1.55;0.75;;;;;;;2.88;89.64;149392.78;13081102;22;20022;-81
2024/01/04 20:35:27;;;;;;;0.88;0.68;;;;;;;2.75;90.93;149359.44;13054996;22;20071;-82
2024/01/04 20:40:29;;;;;;;0.63;0.63;;;;;;;2.98;89.84;149417.16;13066867;22;20007;-80
2024/01/04 20:45:31;;;;;;;2.92;1.50;;;;;;;2.85;90.55;149383.81;13071606;22;20022;-81
2024/01/04 20:50:34;;;;;;;1.75;1.17;;;;;;;2.73;90.86;149354.28;13055018;22;20027;-80
2024/01/04 20:55:35;;;;;;;2.30;1.00;;;;;;;2.86;90.98;149387.63;13058792;22;20023;-81
2024/01/04 21:00:37;;;;;;;1.63;0.90;;;;;;;3.10;90.05;149446.66;13059988;22;20019;-80
2024/01/04 21:05:39;;;;;;;1.17;0.82;;;;;;;3.18;90.49;149467.19;13068793;22;20035;-82
2024/01/04 21:10:42;;;;;;;1.25;1.00;;;;;;;3.07;92.37;149440.28;13094970;22;20026;-80
2024/01/04 21:15:44;;;;;;;1.20;1.10;;;;;;;2.73;97.61;149354.28;13069531;22;20026;-81
2024/01/04 21:20:46;;;;;;;1.30;0.88;;;;;;;2.67;100.00;149338.91;13097584;22;20019;-80
2024/01/04 21:25:48;;;;;;;0.70;0.70;;;;;;;2.48;100.00;149291.44;13056403;22;20095;-81
2024/01/04 21:30:50;;;;;;;2.28;1.27;;;;;;;2.37;100.00;149264.47;13083843;22;20023;-81
2024/01/04 21:35:52;;;;;;;1.70;1.10;;;;;;;2.58;100.00;149315.81;13087415;22;20015;-81
2024/01/04 21:40:53;;;;;;;1.45;1.13;;;;;;;2.50;100.00;149297.81;13085922;22;20050;-81
2024/01/04 21:45:55;;;;;;;2.25;1.27;;;;;;;2.39;100.00;149268.31;13086901;22;20016;-81
2024/01/04 21:50:58;;;;;;;1.70;1.10;;;;;;;2.31;100.00;149249.09;13058483;22;20020;-80
2024/01/04 21:56:00;;;;;;;1.42;1.20;;;;;;;2.23;100.00;149228.56;13057972;22;20052;-81
2024/01/04 22:01:02;;;;;;;0.85;0.85;;;;;;;2.20;100.00;149220.84;13056625;22;20080;-80
2024/01/04 22:06:07;;;;;;;1.40;1.15;;;;;;;2.32;100.00;149251.66;13089127;22;20019;-79
2024/01/04 22:11:09;;;;;;;1.15;1.00;;;;;;;2.33;100.00;149252.94;13088770;22;20044;-82
2024/01/04 22:16:11;;;;;;;1.00;0.90;;;;;;;2.36;100.00;149261.91;13037876;22;20035;-79
2024/01/04 22:21:20;;;;;;;1.30;1.20;;;;;;;2.18;100.00;149217.03;13060759;22;20034;-79
2024/01/04 22:26:24;;;;;;;1.02;0.75;;;;;;;2.05;100.00;149182.41;13060345;22;20019;-79
2024/01/04 22:31:26;;;;;;;1.90;1.00;;;;;;;1.94;100.00;149155.44;13067403;22;20019;-81
2024/01/04 22:36:28;;;;;;;1.30;1.10;;;;;;;1.89;100.00;149142.63;13073211;22;20460;-80
2024/01/04 22:41:30;;;;;;;1.40;1.30;;;;;;;1.92;100.00;149150.34;13065811;22;20020;-78
2024/01/04 22:46:32;;;;;;;1.60;1.17;;;;;;;2.10;100.00;149195.22;13035867;22;20120;-79
2024/01/04 22:51:34;;;;;;;1.65;1.40;;;;;;;1.92;100.00;149151.63;13059463;22;20087;-78
2024/01/04 22:56:36;;;;;;;2.33;1.17;;;;;;;1.87;100.00;149138.81;13087372;22;20365;-78
2024/01/04 23:01:39;;;;;;;1.35;1.25;;;;;;;1.83;100.00;149128.53;13062167;22;20024;-79
2024/01/04 23:06:41;;;;;;;1.80;1.50;;;;;;;1.99;100.00;149169.59;13045784;22;20015;-81
2024/01/04 23:11:43;;;;;;;2.03;1.83;;;;;;;1.95;100.00;149159.31;13088647;22;20026;-79
2024/01/04 23:16:45;;;;;;;2.05;1.55;;;;;;;1.84;100.00;149129.81;13065267;22;20019;-78
2024/01/04 23:21:47;;;;;;;1.70;1.60;;;;;;;1.58;100.00;149064.44;13086698;22;20045;-79